Time;durP1;ratioP1;P1;durP2;ratioP2;P2;SDS_P1;SDS_P2;PMS_P1;PMS_P2;Temp;Humidity;BMP_temperature;BMP_pressure;BME280_temperature;BME280_humidity;BME280_pressure;Samples;Min_cycle;Max_cycle;Signal;HPM_P1;HPM_P2
2022/12/25 00:01:21;;;;;;;6.53;4.27;;;;;;;6.91;98.74;101520.16;6114094;28;20608;-66
2022/12/25 00:04:42;;;;;;;3.53;3.23;;;;;;;6.84;98.00;101526.84;6105873;28;20228;-66
2022/12/25 00:08:05;;;;;;;7.90;3.27;;;;;;;6.83;98.79;101524.28;6130195;28;20227;-66
2022/12/25 00:11:26;;;;;;;9.47;5.27;;;;;;;6.71;98.71;101514.31;6119164;28;20232;-66
2022/12/25 00:14:47;;;;;;;7.77;4.50;;;;;;;6.68;99.23;101526.09;6120050;28;20232;-67
2022/12/25 00:18:08;;;;;;;5.97;4.70;;;;;;;6.43;99.46;101531.22;6133853;28;20232;-67
2022/12/25 00:21:28;;;;;;;10.27;3.63;;;;;;;6.21;99.77;101538.84;6111898;28;20228;-66
2022/12/25 00:24:50;;;;;;;4.93;3.70;;;;;;;6.26;100.00;101534.06;6129557;28;20234;-66
2022/12/25 00:28:11;;;;;;;6.80;3.00;;;;;;;6.23;100.00;101545.84;6117340;28;20236;-66
2022/12/25 00:31:33;;;;;;;7.33;5.03;;;;;;;6.18;100.00;101552.41;6128900;28;20240;-66
2022/12/25 00:34:54;;;;;;;7.40;5.70;;;;;;;6.12;100.00;101558.13;6123678;28;20234;-66
2022/12/25 00:38:14;;;;;;;4.13;3.17;;;;;;;6.02;100.00;101557.84;6127532;28;20232;-66
2022/12/25 00:45:15;;;;;;;9.50;4.63;;;;;;;5.81;100.00;101544.81;6124769;28;20597;-66
2022/12/25 00:48:36;;;;;;;5.70;3.70;;;;;;;5.89;100.00;101558.63;6124689;28;20231;-66
2022/12/25 00:51:57;;;;;;;7.53;4.20;;;;;;;5.76;100.00;101554.94;6135971;28;20239;-66
2022/12/25 00:55:17;;;;;;;9.27;3.77;;;;;;;5.74;100.00;101552.31;6140584;28;20247;-66
2022/12/25 00:58:40;;;;;;;7.17;5.17;;;;;;;5.67;100.00;101549.13;6101642;28;20232;-66
2022/12/25 01:05:36;;;;;;;12.27;5.23;;;;;;;5.56;100.00;101535.53;6116011;28;20650;-67
2022/12/25 01:12:40;;;;;;;15.07;5.47;;;;;;;5.65;100.00;101543.00;6124320;28;20255;-66
2022/12/25 01:16:07;;;;;;;13.73;5.33;;;;;;;5.58;100.00;101547.00;6117960;28;20316;-66
2022/12/25 01:19:27;;;;;;;13.77;5.97;;;;;;;5.59;100.00;101547.88;6127535;28;20243;-66
2022/12/25 01:22:48;;;;;;;11.33;5.23;;;;;;;5.52;100.00;101546.50;6124885;28;20243;-66
2022/12/25 01:26:11;;;;;;;8.20;4.27;;;;;;;5.49;100.00;101552.00;6139359;28;20417;-66
2022/12/25 01:29:32;;;;;;;7.00;5.33;;;;;;;5.40;100.00;101561.41;6121197;28;20310;-66
2022/12/25 01:32:54;;;;;;;7.17;4.30;;;;;;;5.37;100.00;101555.38;6117648;28;20240;-66
2022/12/25 01:36:16;;;;;;;7.60;5.27;;;;;;;5.36;100.00;101567.03;6122738;28;20231;-66
2022/12/25 01:39:37;;;;;;;6.27;4.00;;;;;;;5.29;100.00;101571.00;6127166;28;20231;-66
2022/12/25 01:42:58;;;;;;;7.17;4.00;;;;;;;5.43;100.00;101573.75;6117343;28;20672;-67
2022/12/25 01:46:19;;;;;;;13.43;4.57;;;;;;;5.22;100.00;101577.63;6122691;28;20322;-66
2022/12/25 01:49:44;;;;;;;12.47;5.10;;;;;;;5.33;100.00;101585.91;6138819;28;20230;-66
2022/12/25 01:53:06;;;;;;;7.17;4.13;;;;;;;5.43;100.00;101593.31;6123088;28;20251;-66
2022/12/25 01:56:28;;;;;;;9.07;4.27;;;;;;;5.47;100.00;101591.34;6123554;28;20796;-65
2022/12/25 01:59:49;;;;;;;8.37;5.03;;;;;;;5.46;100.00;101594.97;6139636;28;20227;-66
2022/12/25 02:03:10;;;;;;;6.03;4.57;;;;;;;5.27;100.00;101592.47;6117204;28;20235;-66
2022/12/25 02:06:33;;;;;;;8.77;4.43;;;;;;;5.36;100.00;101607.13;6110916;28;20236;-67
2022/12/25 02:09:54;;;;;;;6.57;4.33;;;;;;;5.36;100.00;101609.81;6119588;28;20227;-67
2022/12/25 02:13:18;;;;;;;6.77;4.57;;;;;;;5.39;100.00;101606.94;6115170;28;20588;-66
2022/12/25 02:16:43;;;;;;;11.50;4.77;;;;;;;5.25;100.00;101612.19;6135636;28;20677;-66
2022/12/25 02:20:27;;;;;;;9.57;4.43;;;;;;;5.36;100.00;101612.47;6116934;28;20239;-65
2022/12/25 02:24:04;;;;;;;6.73;4.37;;;;;;;5.37;100.00;101614.19;6113230;28;20731;-65
2022/12/25 02:28:01;;;;;;;11.83;4.67;;;;;;;5.45;100.00;101617.28;6118734;28;20239;-65
2022/12/25 02:31:32;;;;;;;8.60;4.93;;;;;;;5.46;100.00;101614.56;6114576;28;20322;-66
2022/12/25 02:35:00;;;;;;;4.37;3.97;;;;;;;5.46;100.00;101606.53;6128144;28;20623;-67
2022/12/25 02:38:24;;;;;;;8.50;5.37;;;;;;;5.40;100.00;101619.38;6123579;28;20664;-66
2022/12/25 02:41:47;;;;;;;6.80;4.47;;;;;;;5.17;100.00;101615.31;6130073;28;20516;-65
2022/12/25 03:07:33;;;;;;;9.90;4.63;;;;;;;4.91;100.00;101615.84;6124893;28;20247;-66
2022/12/25 03:18:26;;;;;;;5.13;4.37;;;;;;;4.76;100.00;101596.16;6093533;28;20236;-66
2022/12/25 03:29:04;;;;;;;9.63;5.00;;;;;;;4.60;100.00;101605.94;6126213;28;20223;-66
2022/12/25 03:32:32;;;;;;;5.67;4.33;;;;;;;4.65;100.00;101603.84;6145991;28;20263;-66
2022/12/25 03:36:04;;;;;;;5.93;4.87;;;;;;;4.83;100.00;101608.25;6128751;28;20223;-66
2022/12/25 04:38:24;;;;;;;3.23;2.83;;;;;;;3.95;100.00;101566.63;6111616;28;20728;-67
2022/12/25 04:41:44;;;;;;;9.73;3.87;;;;;;;3.88;100.00;101562.53;6117276;28;20269;-66
2022/12/25 04:45:06;;;;;;;4.70;3.93;;;;;;;4.04;100.00;101549.28;6117458;28;20288;-66
2022/12/25 04:48:31;;;;;;;10.40;4.33;;;;;;;3.84;100.00;101560.06;6124517;28;20318;-67
2022/12/25 04:51:52;;;;;;;8.80;3.93;;;;;;;3.78;100.00;101569.25;6133080;28;20569;-66
2022/12/25 04:55:12;;;;;;;6.20;3.33;;;;;;;3.88;100.00;101567.84;6121458;28;20235;-66
2022/12/25 04:58:33;;;;;;;4.60;3.77;;;;;;;3.76;100.00;101570.25;6122332;28;20920;-66
2022/12/25 05:01:54;;;;;;;6.03;3.67;;;;;;;3.73;100.00;101551.78;6131824;28;20228;-65
2022/12/25 05:05:16;;;;;;;8.43;3.40;;;;;;;3.78;100.00;101552.38;6124197;28;20247;-66
2022/12/25 05:08:37;;;;;;;8.70;4.37;;;;;;;3.76;100.00;101551.59;6113902;28;20265;-67
2022/12/25 05:11:57;;;;;;;7.03;3.90;;;;;;;4.09;100.00;101544.56;6128972;28;20256;-66
2022/12/25 05:15:18;;;;;;;6.70;3.20;;;;;;;3.95;100.00;101533.75;6122905;28;20230;-66
2022/12/25 05:18:39;;;;;;;4.67;3.50;;;;;;;3.99;100.00;101536.19;6119319;28;20237;-66
2022/12/25 05:22:02;;;;;;;10.07;3.80;;;;;;;3.82;100.00;101535.28;6127873;28;20228;-66
2022/12/25 05:25:22;;;;;;;4.17;3.80;;;;;;;4.03;100.00;101540.41;6123271;28;20239;-66
2022/12/25 05:28:43;;;;;;;5.47;4.53;;;;;;;3.96;100.00;101519.47;6111113;28;20226;-64
2022/12/25 05:32:05;;;;;;;7.13;4.27;;;;;;;4.10;100.00;101516.09;6120726;28;20231;-66
2022/12/25 05:35:26;;;;;;;13.50;5.57;;;;;;;4.00;100.00;101521.88;6117008;28;20240;-65
2022/12/25 05:38:48;;;;;;;5.90;4.43;;;;;;;3.99;100.00;101524.63;6129750;28;20692;-66
2022/12/25 05:42:09;;;;;;;4.90;4.27;;;;;;;4.25;100.00;101509.97;6119034;28;20240;-66
2022/12/25 05:45:31;;;;;;;6.20;4.87;;;;;;;4.39;100.00;101515.41;6118476;28;20239;-66
2022/12/25 05:48:51;;;;;;;6.20;4.63;;;;;;;4.26;100.00;101506.31;6115183;28;20234;-66
2022/12/25 05:52:12;;;;;;;6.73;4.20;;;;;;;4.32;100.00;101516.72;6123725;28;20259;-65
2022/12/25 05:55:35;;;;;;;4.53;3.50;;;;;;;4.45;100.00;101512.41;6127699;28;20225;-66
2022/12/25 05:58:56;;;;;;;4.67;4.17;;;;;;;4.54;100.00;101515.47;6126718;28;20231;-65
2022/12/25 06:02:17;;;;;;;7.83;3.93;;;;;;;4.49;100.00;101522.00;6115870;28;20247;-65
2022/12/25 06:05:38;;;;;;;7.67;4.13;;;;;;;4.70;100.00;101520.84;6113239;28;20561;-65
2022/12/25 06:08:59;;;;;;;5.03;4.13;;;;;;;4.62;100.00;101523.06;6114007;28;20231;-65
2022/12/25 06:12:21;;;;;;;6.30;5.13;;;;;;;4.64;100.00;101527.38;6120695;28;20618;-65
2022/12/25 06:15:42;;;;;;;8.37;4.53;;;;;;;4.44;100.00;101516.06;6130718;28;20838;-66
2022/12/25 06:19:03;;;;;;;9.57;5.30;;;;;;;4.44;100.00;101524.94;6116080;28;20568;-66
2022/12/25 06:22:28;;;;;;;9.17;4.67;;;;;;;4.57;100.00;101520.63;6131589;28;20234;-66
2022/12/25 06:25:48;;;;;;;6.97;4.47;;;;;;;4.55;100.00;101516.31;6098096;29;20265;-66
2022/12/25 06:29:10;;;;;;;6.53;4.57;;;;;;;4.62;100.00;101501.72;6088208;29;20232;-66
2022/12/25 06:32:31;;;;;;;6.00;4.30;;;;;;;4.57;100.00;101515.28;6104808;29;20240;-66
2022/12/25 06:35:52;;;;;;;7.97;4.73;;;;;;;4.46;100.00;101514.16;6090673;29;20232;-66
2022/12/25 06:39:13;;;;;;;6.60;5.73;;;;;;;4.49;100.00;101517.53;6106331;28;20334;-66
2022/12/25 06:42:34;;;;;;;8.37;5.63;;;;;;;4.62;100.00;101534.63;6107114;28;20229;-66
2022/12/25 06:45:56;;;;;;;6.77;5.20;;;;;;;4.75;100.00;101516.13;6100571;29;20313;-67
2022/12/25 06:49:17;;;;;;;7.00;4.67;;;;;;;4.74;100.00;101523.25;6085229;28;20232;-67
2022/12/25 06:52:37;;;;;;;6.57;4.83;;;;;;;4.77;100.00;101524.91;6099856;28;20237;-65
2022/12/25 06:56:03;;;;;;;6.97;5.10;;;;;;;4.80;100.00;101528.28;6120019;28;20235;-66
2022/12/25 06:59:24;;;;;;;7.30;4.93;;;;;;;4.65;100.00;101529.09;6084657;28;20235;-65
2022/12/25 07:02:48;;;;;;;6.27;4.47;;;;;;;4.67;100.00;101515.69;6095868;29;20638;-65
2022/12/25 07:06:09;;;;;;;18.13;5.37;;;;;;;4.78;100.00;101522.16;6090298;28;20236;-66
2022/12/25 07:09:30;;;;;;;6.13;5.30;;;;;;;4.70;100.00;101526.19;6097339;28;20241;-66
2022/12/25 07:12:51;;;;;;;6.43;4.70;;;;;;;4.74;100.00;101539.28;6111517;28;20574;-66
2022/12/25 07:16:12;;;;;;;7.80;4.40;;;;;;;4.71;100.00;101536.78;6105818;28;20371;-66
2022/12/25 07:19:35;;;;;;;9.47;5.63;;;;;;;4.79;100.00;101539.03;6091865;28;20232;-65
2022/12/25 07:22:56;;;;;;;6.47;4.60;;;;;;;4.82;100.00;101542.41;6107813;28;20263;-66
2022/12/25 07:26:17;;;;;;;7.63;5.57;;;;;;;4.91;100.00;101550.84;6092723;28;20229;-65
2022/12/25 07:29:38;;;;;;;7.47;4.47;;;;;;;4.99;100.00;101537.94;6093113;28;20525;-66
2022/12/25 07:32:59;;;;;;;10.47;4.17;;;;;;;5.11;100.00;101545.31;6100722;29;20244;-66
2022/12/25 07:36:21;;;;;;;8.27;4.80;;;;;;;5.17;100.00;101540.47;6095191;29;20229;-66
2022/12/25 07:39:42;;;;;;;10.53;4.73;;;;;;;5.12;100.00;101539.88;6088229;29;20232;-66
2022/12/25 07:43:03;;;;;;;8.23;4.87;;;;;;;5.08;100.00;101540.13;6089432;29;20244;-66
2022/12/25 07:46:23;;;;;;;7.47;5.97;;;;;;;5.18;100.00;101541.31;6089552;28;20236;-66
2022/12/25 07:49:44;;;;;;;9.13;5.60;;;;;;;5.11;100.00;101537.28;6095345;28;20274;-65
2022/12/25 07:53:07;;;;;;;11.80;4.00;;;;;;;5.15;100.00;101533.50;6098498;28;20248;-66
2022/12/25 07:56:27;;;;;;;8.63;4.00;;;;;;;5.14;100.00;101524.59;6117464;28;20261;-65
2022/12/25 07:59:48;;;;;;;8.37;5.67;;;;;;;5.28;100.00;101523.81;6115606;28;20239;-66
2022/12/25 08:03:09;;;;;;;7.37;4.47;;;;;;;5.30;100.00;101517.44;6118453;28;20236;-66
2022/12/25 08:06:32;;;;;;;5.37;3.70;;;;;;;5.36;100.00;101522.44;6117382;28;20235;-66
2022/12/25 08:09:54;;;;;;;7.13;5.90;;;;;;;5.29;100.00;101528.22;6127908;28;20234;-65
2022/12/25 08:13:15;;;;;;;11.03;4.80;;;;;;;5.24;100.00;101506.22;6105355;28;20232;-66
2022/12/25 08:16:38;;;;;;;5.50;4.77;;;;;;;5.37;100.00;101501.91;6137703;28;20867;-66
2022/12/25 08:19:59;;;;;;;5.63;3.93;;;;;;;5.48;100.00;101494.16;6122194;28;20231;-67
2022/12/25 08:23:20;;;;;;;6.53;5.13;;;;;;;5.29;100.00;101494.34;6112904;28;20235;-65
2022/12/25 08:26:42;;;;;;;9.13;4.47;;;;;;;5.16;100.00;101493.31;6131769;28;20268;-65
2022/12/25 08:30:03;;;;;;;5.07;3.57;;;;;;;5.29;100.00;101494.34;6124172;28;20235;-66
2022/12/25 08:33:24;;;;;;;6.60;4.10;;;;;;;5.30;100.00;101504.06;6104373;28;20244;-66
2022/12/25 08:36:45;;;;;;;5.73;4.03;;;;;;;5.35;100.00;101503.81;6130767;28;20256;-67
2022/12/25 08:40:08;;;;;;;11.60;4.13;;;;;;;5.36;100.00;101501.03;6114534;28;20227;-67
2022/12/25 08:43:31;;;;;;;9.77;6.57;;;;;;;5.48;100.00;101499.50;6112720;28;20228;-66
2022/12/25 08:46:51;;;;;;;11.97;4.00;;;;;;;5.61;100.00;101500.53;6123726;28;20236;-66
2022/12/25 08:50:12;;;;;;;6.50;4.43;;;;;;;5.73;100.00;101491.75;6115644;28;20333;-66
2022/12/25 08:53:33;;;;;;;6.80;3.50;;;;;;;5.78;100.00;101500.38;6103201;28;21398;-66
2022/12/25 08:56:54;;;;;;;3.97;3.17;;;;;;;5.97;100.00;101493.00;6123330;28;20585;-66
2022/12/25 09:00:17;;;;;;;5.67;4.27;;;;;;;6.08;100.00;101511.97;6120637;28;20273;-65
2022/12/25 09:03:38;;;;;;;6.17;3.93;;;;;;;5.75;100.00;101518.41;6107232;28;20335;-65
2022/12/25 09:06:59;;;;;;;4.90;4.17;;;;;;;5.71;100.00;101517.75;6123362;28;20220;-66
2022/12/25 09:10:19;;;;;;;5.97;4.57;;;;;;;5.77;100.00;101521.84;6110751;28;20610;-66
2022/12/25 09:13:40;;;;;;;5.77;4.20;;;;;;;5.85;100.00;101517.81;6105358;28;20235;-65
2022/12/25 09:17:03;;;;;;;7.73;4.30;;;;;;;5.86;100.00;101514.19;6111659;28;20228;-66
2022/12/25 09:20:24;;;;;;;6.67;4.67;;;;;;;5.77;100.00;101513.84;6114939;28;20253;-66
2022/12/25 09:23:45;;;;;;;9.37;3.90;;;;;;;5.88;100.00;101519.47;6113096;28;20543;-66
2022/12/25 09:27:06;;;;;;;8.73;4.97;;;;;;;5.79;100.00;101518.16;6120460;28;20220;-67
2022/12/25 09:30:27;;;;;;;5.40;3.80;;;;;;;5.84;100.00;101520.59;6118738;28;20239;-65
2022/12/25 09:33:50;;;;;;;7.73;4.67;;;;;;;5.93;100.00;101515.53;6106961;28;20230;-66
2022/12/25 09:37:11;;;;;;;8.10;5.73;;;;;;;5.90;100.00;101520.22;6131580;28;20235;-66
2022/12/25 09:40:32;;;;;;;5.53;4.97;;;;;;;5.85;100.00;101517.81;6117383;28;20704;-65
2022/12/25 09:43:57;;;;;;;9.43;4.57;;;;;;;5.85;100.00;101524.97;6102430;28;20235;-66
2022/12/25 09:47:21;;;;;;;5.93;4.43;;;;;;;5.94;100.00;101513.75;6119315;28;20235;-66
2022/12/25 09:50:48;;;;;;;5.77;3.80;;;;;;;5.96;100.00;101512.72;6115153;28;20235;-66
2022/12/25 09:54:16;;;;;;;17.47;5.03;;;;;;;6.07;100.00;101515.59;6111968;28;20243;-65
2022/12/25 09:57:37;;;;;;;7.17;3.87;;;;;;;6.03;100.00;101510.53;6124662;28;20642;-66
2022/12/25 10:01:07;;;;;;;6.23;4.40;;;;;;;6.07;100.00;101512.06;6116941;28;20267;-67
2022/12/25 10:04:47;;;;;;;9.47;3.73;;;;;;;6.10;100.00;101531.47;6105912;28;20238;-66
2022/12/25 10:08:20;;;;;;;12.53;4.70;;;;;;;6.10;100.00;101520.75;6113957;28;20254;-66
2022/12/25 10:12:07;;;;;;;3.73;3.37;;;;;;;6.07;100.00;101512.06;6110550;28;20743;-66
2022/12/25 10:15:33;;;;;;;6.33;5.67;;;;;;;6.20;100.00;101507.69;6113277;28;20231;-66
2022/12/25 10:19:04;;;;;;;5.67;3.93;;;;;;;6.21;100.00;101512.97;6105724;28;20219;-66
2022/12/25 10:22:31;;;;;;;6.80;3.63;;;;;;;6.23;100.00;101499.47;6106951;28;20573;-66
2022/12/25 10:25:54;;;;;;;6.53;3.73;;;;;;;6.29;100.00;101491.94;6116922;28;20260;-65
2022/12/25 10:29:16;;;;;;;11.60;3.23;;;;;;;6.29;100.00;101497.28;6115914;28;20236;-67
2022/12/25 10:32:37;;;;;;;15.10;3.87;;;;;;;6.35;100.00;101470.13;6115533;28;20240;-66
2022/12/25 10:35:58;;;;;;;3.93;3.43;;;;;;;6.47;100.00;101472.03;6124113;28;20231;-66
2022/12/25 10:39:21;;;;;;;4.80;4.17;;;;;;;6.47;100.00;101467.66;6111439;28;20572;-66
2022/12/25 10:42:46;;;;;;;4.23;3.83;;;;;;;6.45;100.00;101452.53;6118805;28;20599;-66
2022/12/25 10:46:10;;;;;;;11.17;3.97;;;;;;;6.42;100.00;101446.50;6111164;28;20228;-67
2022/12/25 10:49:35;;;;;;;8.20;4.60;;;;;;;6.53;100.00;101451.19;6109605;28;20662;-66
2022/12/25 10:52:59;;;;;;;6.10;3.47;;;;;;;6.43;100.00;101454.44;6119704;28;20232;-66
2022/12/25 10:56:20;;;;;;;5.73;3.63;;;;;;;6.44;100.00;101448.16;6112441;28;20563;-66
2022/12/25 10:59:44;;;;;;;4.73;2.57;;;;;;;6.59;100.00;101448.13;6110190;28;20239;-66
2022/12/25 11:03:05;;;;;;;7.37;3.50;;;;;;;6.76;100.00;101430.00;6111342;28;20251;-65
2022/12/25 11:06:29;;;;;;;6.70;2.77;;;;;;;6.73;100.00;101426.69;6135331;28;20235;-66
2022/12/25 11:09:51;;;;;;;5.77;3.30;;;;;;;6.74;100.00;101420.38;6121669;28;20239;-66
2022/12/25 11:13:20;;;;;;;4.13;3.13;;;;;;;6.72;100.00;101398.16;6109132;28;20863;-66
2022/12/25 11:16:42;;;;;;;6.27;3.77;;;;;;;6.89;100.00;101395.25;6114521;28;20326;-67
2022/12/25 11:20:24;;;;;;;3.87;2.80;;;;;;;6.80;100.00;101385.97;6119719;28;20519;-66
2022/12/25 11:23:46;;;;;;;6.57;3.80;;;;;;;6.83;100.00;101399.19;6117871;28;20236;-65
2022/12/25 11:27:18;;;;;;;6.40;3.57;;;;;;;6.74;100.00;101382.88;6123571;28;20235;-66
2022/12/25 11:30:40;;;;;;;4.73;3.17;;;;;;;6.80;100.00;101390.50;6110975;28;20236;-66
2022/12/25 11:34:06;;;;;;;5.57;3.30;;;;;;;6.80;100.00;101385.97;6104577;28;20277;-67
2022/12/25 11:37:33;;;;;;;4.33;3.90;;;;;;;7.03;100.00;101385.34;6126358;28;20899;-67
2022/12/25 11:40:58;;;;;;;5.33;3.63;;;;;;;6.91;100.00;101380.78;6115568;28;20224;-66
2022/12/25 11:44:31;;;;;;;3.87;3.43;;;;;;;6.95;100.00;101397.53;6117609;28;20552;-66
2022/12/25 11:47:55;;;;;;;7.60;3.90;;;;;;;6.98;100.00;101381.25;6110642;28;20243;-66
2022/12/25 11:51:19;;;;;;;5.73;4.53;;;;;;;6.84;100.00;101360.72;6112510;28;20236;-66
2022/12/25 11:54:47;;;;;;;7.97;7.03;;;;;;;6.95;100.00;101368.03;6113466;28;20255;-66
2022/12/25 11:58:16;;;;;;;9.17;4.97;;;;;;;7.02;100.00;101364.00;6125734;28;20317;-65
2022/12/25 12:01:43;;;;;;;6.93;4.13;;;;;;;6.92;100.00;101378.97;6112856;28;20235;-66
2022/12/25 12:05:12;;;;;;;6.50;2.63;;;;;;;6.93;100.00;101388.72;6115173;28;20569;-66
2022/12/25 12:08:36;;;;;;;10.33;4.03;;;;;;;6.91;100.00;101378.13;6104192;28;20249;-67
2022/12/25 12:12:05;;;;;;;7.03;3.53;;;;;;;6.92;100.00;101382.53;6121607;28;20600;-66
2022/12/25 12:15:30;;;;;;;10.13;3.87;;;;;;;6.87;100.00;101386.44;6122545;28;20235;-66
2022/12/25 12:18:51;;;;;;;6.93;2.83;;;;;;;6.84;100.00;101375.94;6114417;28;20235;-66
2022/12/25 12:22:19;;;;;;;5.13;3.80;;;;;;;6.91;100.00;101385.28;6126524;28;20228;-66
2022/12/25 12:25:44;;;;;;;7.93;4.13;;;;;;;6.86;100.00;101395.47;6127449;28;20227;-66
2022/12/25 12:29:07;;;;;;;4.80;3.73;;;;;;;6.76;100.00;101365.72;6109457;28;20219;-67
2022/12/25 12:32:38;;;;;;;4.97;4.57;;;;;;;6.80;100.00;101363.72;6120819;28;20229;-65
2022/12/25 12:36:02;;;;;;;5.50;4.40;;;;;;;6.76;100.00;101360.34;6113866;28;20625;-66
2022/12/25 12:39:26;;;;;;;5.93;4.37;;;;;;;6.83;100.00;101356.31;6111154;28;20276;-66
2022/12/25 12:42:50;;;;;;;9.67;3.93;;;;;;;6.84;100.00;101343.78;6119128;28;20645;-66
2022/12/25 12:46:17;;;;;;;7.63;4.33;;;;;;;6.89;100.00;101339.84;6114066;28;20236;-67
2022/12/25 12:49:38;;;;;;;10.00;5.40;;;;;;;6.93;100.00;101343.16;6131817;28;20234;-66
2022/12/25 12:53:04;;;;;;;11.00;3.57;;;;;;;7.02;100.00;101334.53;6121550;28;20235;-66
2022/12/25 12:56:25;;;;;;;9.87;4.33;;;;;;;6.97;100.00;101320.56;6118973;28;20534;-66
2022/12/25 12:59:47;;;;;;;6.10;3.47;;;;;;;6.99;100.00;101307.91;6119138;28;20231;-66
2022/12/25 13:03:38;;;;;;;5.90;3.67;;;;;;;7.11;100.00;101297.22;6118933;28;20240;-65
2022/12/25 13:07:10;;;;;;;6.93;3.87;;;;;;;7.03;100.00;101283.47;6112730;28;20228;-66
2022/12/25 13:10:33;;;;;;;13.93;6.57;;;;;;;7.09;100.00;101280.38;6115568;28;20561;-66
2022/12/25 13:13:57;;;;;;;7.67;5.47;;;;;;;7.19;100.00;101276.16;6110088;28;20688;-66
2022/12/25 13:17:22;;;;;;;7.80;4.43;;;;;;;7.04;100.00;101284.34;6116158;28;20240;-66
2022/12/25 13:20:50;;;;;;;6.10;4.50;;;;;;;6.89;100.00;101298.78;6115869;28;20278;-65
2022/12/25 13:24:20;;;;;;;5.27;3.93;;;;;;;6.92;100.00;101283.38;6123471;28;20654;-66
2022/12/25 13:27:41;;;;;;;8.20;5.97;;;;;;;6.96;100.00;101273.28;6122264;28;20243;-67
2022/12/25 13:31:03;;;;;;;6.37;3.43;;;;;;;7.05;100.00;101264.66;6115145;28;20232;-66
2022/12/25 13:34:31;;;;;;;6.70;4.30;;;;;;;7.05;100.00;101245.88;6124070;28;20235;-66
2022/12/25 13:37:53;;;;;;;10.60;4.67;;;;;;;7.07;100.00;101238.59;6125998;28;20239;-66
2022/12/25 13:45:20;;;;;;;6.67;4.47;;;;;;;7.16;100.00;101254.03;6084521;28;20220;-66
2022/12/25 13:48:42;;;;;;;8.30;3.57;;;;;;;7.16;100.00;101252.22;6115707;28;20230;-65
2022/12/25 13:52:12;;;;;;;5.67;4.03;;;;;;;7.13;100.00;101256.94;6122859;28;20232;-65
2022/12/25 13:55:33;;;;;;;6.93;4.30;;;;;;;7.19;100.00;101257.38;6133065;28;20293;-67
2022/12/25 13:58:54;;;;;;;5.77;3.40;;;;;;;7.18;100.00;101255.66;6113474;28;20239;-67
2022/12/25 14:02:20;;;;;;;7.13;3.87;;;;;;;7.25;100.00;101243.53;6123414;28;20322;-67
2022/12/25 14:05:41;;;;;;;15.37;4.03;;;;;;;7.13;100.00;101251.56;6134315;28;20243;-68
2022/12/25 14:09:04;;;;;;;4.57;3.33;;;;;;;7.02;100.00;101248.75;6111201;28;20231;-66
2022/12/25 14:12:27;;;;;;;6.40;3.33;;;;;;;7.05;100.00;101235.16;6125614;28;20231;-67
2022/12/25 14:15:52;;;;;;;5.20;4.70;;;;;;;7.03;100.00;101245.97;6129020;28;20243;-66
2022/12/25 14:19:23;;;;;;;6.43;4.90;;;;;;;7.06;100.00;101237.72;6129215;28;20534;-66
2022/12/25 14:22:50;;;;;;;5.30;4.00;;;;;;;7.07;100.00;101239.44;6142174;28;20243;-67
2022/12/25 14:26:17;;;;;;;7.43;4.33;;;;;;;7.05;100.00;101240.53;6137533;28;20288;-67
2022/12/25 14:29:41;;;;;;;5.23;3.67;;;;;;;7.08;100.00;101232.25;6112003;28;20267;-66
2022/12/25 14:33:02;;;;;;;4.00;3.60;;;;;;;7.06;100.00;101213.59;6125970;28;20231;-67
2022/12/25 14:36:23;;;;;;;5.80;3.63;;;;;;;7.04;100.00;101203.94;6127463;28;20314;-68
2022/12/25 14:39:46;;;;;;;3.73;3.13;;;;;;;7.04;100.00;101212.84;6117863;28;20238;-66
2022/12/25 14:43:22;;;;;;;7.50;4.17;;;;;;;6.95;100.00;101207.25;6121367;28;20255;-67
2022/12/25 14:46:43;;;;;;;5.97;4.30;;;;;;;7.03;100.00;101196.88;6121546;28;20235;-66
2022/12/25 14:50:14;;;;;;;5.03;3.10;;;;;;;6.98;100.00;101196.31;6132611;28;20238;-67
2022/12/25 14:53:38;;;;;;;4.53;3.57;;;;;;;6.95;100.00;101202.75;6114269;28;20238;-67
2022/12/25 14:56:59;;;;;;;5.30;3.20;;;;;;;6.96;100.00;101192.91;6128364;28;20283;-67
2022/12/25 15:00:25;;;;;;;5.27;3.30;;;;;;;6.91;100.00;101192.34;6134583;28;20243;-66
2022/12/25 15:03:47;;;;;;;7.47;3.57;;;;;;;6.97;100.00;101194.59;6117948;28;21107;-66
2022/12/25 15:07:25;;;;;;;5.30;4.20;;;;;;;6.98;100.00;101177.56;6133557;28;20662;-67
2022/12/25 15:10:46;;;;;;;6.53;3.30;;;;;;;6.99;100.00;101185.50;6128179;28;20235;-66
2022/12/25 15:14:07;;;;;;;4.37;3.97;;;;;;;7.00;100.00;101170.28;6116302;28;20660;-67
2022/12/25 15:17:32;;;;;;;9.57;4.60;;;;;;;7.01;100.00;101188.94;6134655;28;20687;-65
2022/12/25 15:20:55;;;;;;;8.03;3.40;;;;;;;7.01;100.00;101182.69;6140342;28;20247;-66
2022/12/25 15:24:17;;;;;;;5.43;3.03;;;;;;;7.00;100.00;101195.28;6140896;28;20234;-66
2022/12/25 15:27:37;;;;;;;7.63;3.73;;;;;;;7.02;100.00;101192.47;6134877;28;20227;-66
2022/12/25 15:30:58;;;;;;;4.57;3.87;;;;;;;7.05;100.00;101178.88;6129639;28;20228;-65
2022/12/25 15:34:21;;;;;;;3.90;3.57;;;;;;;7.14;100.00;101168.34;6117492;28;20228;-66
2022/12/25 15:37:41;;;;;;;7.13;4.47;;;;;;;7.11;100.00;101170.41;6140916;28;20693;-66
2022/12/25 15:41:02;;;;;;;4.67;3.67;;;;;;;7.12;100.00;101161.38;6117977;28;20657;-66
2022/12/25 15:44:24;;;;;;;6.07;3.37;;;;;;;7.06;100.00;101148.41;6115116;28;20681;-65
2022/12/25 15:47:45;;;;;;;4.80;3.37;;;;;;;7.18;100.00;101144.84;6122196;28;20232;-66
2022/12/25 15:51:07;;;;;;;7.70;3.13;;;;;;;7.16;100.00;101133.38;6126812;28;20236;-66
2022/12/25 15:54:28;;;;;;;3.50;2.43;;;;;;;7.13;100.00;101131.78;6120456;28;20321;-67
2022/12/25 15:57:51;;;;;;;8.83;4.50;;;;;;;7.11;100.00;101133.72;6122392;28;20334;-66
2022/12/25 16:01:14;;;;;;;4.20;2.80;;;;;;;7.12;100.00;101142.63;6105248;28;20570;-66
2022/12/25 16:04:34;;;;;;;6.80;3.90;;;;;;;7.13;100.00;101131.78;6122933;28;20228;-65
2022/12/25 16:07:56;;;;;;;4.10;3.37;;;;;;;7.22;100.00;101135.63;6132059;28;20227;-67
2022/12/25 16:11:17;;;;;;;5.43;3.93;;;;;;;7.12;100.00;101130.06;6136321;28;20243;-65
2022/12/25 16:14:38;;;;;;;7.90;3.80;;;;;;;7.15;100.00;101134.38;6115552;28;20239;-66
2022/12/25 16:17:58;;;;;;;4.47;4.07;;;;;;;7.11;100.00;101122.97;6116779;28;20231;-67
2022/12/25 16:21:21;;;;;;;8.07;4.23;;;;;;;7.08;100.00;101114.31;6138828;28;20510;-66
2022/12/25 16:24:42;;;;;;;3.50;2.97;;;;;;;7.13;100.00;101112.19;6123670;28;20236;-67
2022/12/25 16:28:04;;;;;;;7.50;4.07;;;;;;;7.14;100.00;101109.38;6114756;28;20239;-66
2022/12/25 16:31:25;;;;;;;4.50;3.27;;;;;;;7.17;100.00;101102.94;6113175;28;20248;-66
2022/12/25 16:34:48;;;;;;;4.33;3.70;;;;;;;7.26;100.00;101094.22;6128296;28;20242;-66
2022/12/25 16:38:10;;;;;;;5.87;3.90;;;;;;;7.16;100.00;101091.34;6112432;28;20326;-66
2022/12/25 16:41:32;;;;;;;7.23;4.17;;;;;;;7.14;100.00;101089.75;6120058;28;20255;-65
2022/12/25 16:44:53;;;;;;;4.13;3.20;;;;;;;7.10;100.00;101083.75;6107041;28;20232;-66
2022/12/25 16:48:14;;;;;;;5.27;3.80;;;;;;;7.04;100.00;101078.84;6110306;28;20327;-66
2022/12/25 16:51:35;;;;;;;3.40;3.10;;;;;;;7.09;100.00;101075.84;6128960;28;20232;-66
2022/12/25 16:54:56;;;;;;;6.33;3.63;;;;;;;7.06;100.00;101071.53;6117480;28;20238;-66
2022/12/25 16:58:18;;;;;;;10.50;4.07;;;;;;;7.07;100.00;101070.56;6108809;28;20244;-66
2022/12/25 17:01:41;;;;;;;6.47;5.07;;;;;;;7.10;100.00;101065.00;6119986;28;20512;-65
2022/12/25 17:05:02;;;;;;;4.90;3.57;;;;;;;7.18;100.00;101054.56;6125569;28;20393;-66
2022/12/25 17:08:23;;;;;;;5.37;3.27;;;;;;;7.25;100.00;101055.84;6124487;28;20231;-66
2022/12/25 17:11:44;;;;;;;6.27;4.03;;;;;;;7.27;100.00;101050.38;6128088;28;20239;-66
2022/12/25 17:15:07;;;;;;;5.57;4.80;;;;;;;7.17;100.00;101043.97;6141115;28;20271;-64
2022/12/25 17:18:28;;;;;;;7.13;4.23;;;;;;;7.18;100.00;101040.31;6103103;28;20247;-66
2022/12/25 17:21:50;;;;;;;9.40;4.77;;;;;;;7.20;100.00;101031.19;6134941;28;20516;-65
2022/12/25 17:25:11;;;;;;;6.70;4.53;;;;;;;7.13;100.00;101029.91;6123011;28;20321;-66
2022/12/25 17:28:31;;;;;;;7.70;4.30;;;;;;;7.14;100.00;101034.31;6116034;28;20564;-66
2022/12/25 17:31:54;;;;;;;7.00;4.80;;;;;;;7.16;100.00;101034.19;6122181;28;20334;-65
2022/12/25 17:35:16;;;;;;;9.37;7.23;;;;;;;7.29;100.00;101032.34;6120969;28;20622;-66